Time;durP1;ratioP1;P1;durP2;ratioP2;P2;SDS_P1;SDS_P2;PMS_P1;PMS_P2;Temp;Humidity;BMP_temperature;BMP_pressure;BME280_temperature;BME280_humidity;BME280_pressure;Samples;Min_cycle;Max_cycle;Signal;HPM_P1;HPM_P2
2024/02/27 00:02:42;;;;;;;1.60;1.50;;;;;;;4.77;100.00;100594.53;6096744;23;20513;-68
2024/02/27 00:05:25;;;;;;;3.60;1.60;;;;;;;4.73;100.00;100597.72;6097426;23;20206;-66
2024/02/27 00:08:03;;;;;;;5.93;2.20;;;;;;;4.79;100.00;100603.22;6095321;23;20174;-67
2024/02/27 00:10:39;;;;;;;1.90;1.65;;;;;;;4.80;100.00;100606.72;6096736;23;20216;-66
2024/02/27 00:13:22;;;;;;;4.80;1.08;;;;;;;4.78;100.00;100608.75;6097645;23;20179;-66
2024/02/27 00:16:05;;;;;;;2.05;1.60;;;;;;;4.73;100.00;100608.44;6095439;23;20268;-66
2024/02/27 00:18:44;;;;;;;3.88;2.38;;;;;;;4.70;100.00;100606.91;6095507;23;20746;-67
2024/02/27 00:21:24;;;;;;;1.42;1.17;;;;;;;4.73;100.00;100605.75;6072357;23;20515;-67
2024/02/27 00:24:03;;;;;;;1.60;1.33;;;;;;;4.73;100.00;100613.81;6095473;23;20565;-67
2024/02/27 00:26:45;;;;;;;2.28;1.50;;;;;;;4.75;100.00;100615.28;6095395;23;20233;-65
2024/02/27 00:29:21;;;;;;;1.88;1.50;;;;;;;4.76;100.00;100616.97;6094952;23;20223;-67
2024/02/27 00:31:56;;;;;;;4.55;2.35;;;;;;;4.70;100.00;100617.66;6097025;23;20639;-67
2024/02/27 00:34:31;;;;;;;2.17;1.30;;;;;;;4.68;100.00;100624.19;6095209;23;20232;-67
2024/02/27 00:37:10;;;;;;;5.20;3.70;;;;;;;4.61;100.00;100617.84;6095190;23;20200;-67
2024/02/27 00:39:50;;;;;;;1.80;1.35;;;;;;;4.65;100.00;100616.47;6095287;23;20587;-66
2024/02/27 00:42:29;;;;;;;3.67;1.15;;;;;;;4.59;100.00;100615.34;6072486;23;20177;-67
2024/02/27 00:45:05;;;;;;;1.98;1.83;;;;;;;4.58;100.00;100620.88;6095721;23;20201;-65
2024/02/27 00:47:47;;;;;;;1.33;1.23;;;;;;;4.53;100.00;100621.38;6095161;23;20570;-66
2024/02/27 00:50:21;;;;;;;2.33;1.27;;;;;;;4.58;100.00;100621.72;6096519;23;20206;-67
2024/02/27 00:53:08;;;;;;;1.65;1.17;;;;;;;4.53;100.00;100625.91;6097137;23;20174;-67
2024/02/27 00:55:45;;;;;;;3.92;1.13;;;;;;;4.51;100.00;100620.69;6098123;23;20634;-67
2024/02/27 00:58:24;;;;;;;4.53;2.25;;;;;;;4.54;100.00;100616.84;6096391;23;20520;-67
2024/02/27 01:01:00;;;;;;;2.03;1.55;;;;;;;4.53;100.00;100610.66;6073796;23;20206;-66
2024/02/27 01:03:35;;;;;;;2.00;1.90;;;;;;;4.52;100.00;100619.69;6096294;23;20201;-66
2024/02/27 01:06:13;;;;;;;2.08;1.45;;;;;;;4.51;100.00;100614.50;6096106;23;20649;-67
2024/02/27 01:08:53;;;;;;;2.33;1.75;;;;;;;4.57;100.00;100612.00;6095526;23;20196;-67
2024/02/27 01:11:35;;;;;;;1.95;1.77;;;;;;;4.64;100.00;100617.50;6096297;23;20191;-67
2024/02/27 01:14:14;;;;;;;3.28;1.90;;;;;;;4.62;100.00;100624.88;6095690;23;20174;-68
2024/02/27 01:17:02;;;;;;;2.35;1.92;;;;;;;4.61;100.00;100624.03;6096169;23;20832;-67
2024/02/27 01:19:40;;;;;;;2.20;1.35;;;;;;;4.66;100.00;100621.69;6095125;23;20670;-67
2024/02/27 01:22:27;;;;;;;1.50;1.40;;;;;;;4.58;100.00;100624.38;6095582;23;20219;-66
2024/02/27 01:25:12;;;;;;;1.75;1.25;;;;;;;4.55;100.00;100624.72;6096053;23;20250;-66
2024/02/27 01:27:58;;;;;;;3.20;1.75;;;;;;;4.59;100.00;100631.44;6095314;23;20496;-66
2024/02/27 01:30:33;;;;;;;2.83;2.15;;;;;;;4.50;100.00;100637.81;6095171;23;20190;-66
2024/02/27 01:36:11;;;;;;;1.30;1.02;;;;;;;4.44;100.00;100630.44;6096069;23;20177;-68
2024/02/27 01:38:49;;;;;;;2.45;1.40;;;;;;;4.38;100.00;100631.94;6095655;23;20224;-67
2024/02/27 01:41:29;;;;;;;1.13;1.02;;;;;;;4.36;100.00;100630.41;6095713;23;20175;-67
2024/02/27 01:44:06;;;;;;;2.75;1.55;;;;;;;4.32;100.00;100631.75;6095552;23;20175;-66
2024/02/27 01:46:46;;;;;;;4.30;0.98;;;;;;;4.42;100.00;100637.78;6095217;23;20172;-67
2024/02/27 01:49:25;;;;;;;5.50;1.60;;;;;;;4.37;100.00;100648.16;6094967;23;20206;-67
2024/02/27 01:52:04;;;;;;;0.90;0.80;;;;;;;4.41;100.00;100649.50;6094863;23;20189;-66
2024/02/27 01:54:51;;;;;;;1.92;1.42;;;;;;;4.38;100.00;100652.53;6097279;23;20641;-67
2024/02/27 01:57:34;;;;;;;1.10;0.95;;;;;;;4.33;100.00;100658.41;6097144;23;20623;-67
2024/02/27 02:00:20;;;;;;;2.50;1.75;;;;;;;4.33;100.00;100654.88;6095413;23;20204;-68
2024/02/27 02:02:56;;;;;;;1.77;1.17;;;;;;;4.49;100.00;100665.59;6095755;23;20614;-67
2024/02/27 02:05:35;;;;;;;2.95;1.17;;;;;;;4.40;100.00;100668.44;6095113;23;20199;-67
2024/02/27 02:08:14;;;;;;;1.15;0.77;;;;;;;4.35;100.00;100677.00;6096934;23;20159;-68
2024/02/27 02:10:52;;;;;;;2.80;2.60;;;;;;;4.41;100.00;100681.66;6095679;23;20710;-67
2024/02/27 02:13:40;;;;;;;1.40;1.30;;;;;;;4.36;100.00;100678.63;6096618;23;20626;-67
2024/02/27 02:16:14;;;;;;;1.88;1.65;;;;;;;4.42;100.00;100677.13;6095522;23;20258;-68
2024/02/27 02:18:56;;;;;;;1.60;1.38;;;;;;;4.38;100.00;100676.66;6095287;23;20664;-67
2024/02/27 02:21:34;;;;;;;1.73;1.42;;;;;;;4.34;100.00;100675.31;6095683;23;20509;-67
2024/02/27 02:24:14;;;;;;;1.52;0.93;;;;;;;4.36;100.00;100676.81;6095073;23;20177;-68
2024/02/27 02:26:53;;;;;;;1.83;1.02;;;;;;;4.37;100.00;100677.63;6095372;23;20180;-67
2024/02/27 02:29:31;;;;;;;2.35;1.30;;;;;;;4.34;100.00;100676.16;6097705;23;20197;-69
2024/02/27 02:32:15;;;;;;;3.22;3.03;;;;;;;4.37;100.00;100673.13;6097116;23;20197;-66
2024/02/27 02:34:55;;;;;;;3.08;2.78;;;;;;;4.34;100.00;100680.66;6095630;23;20173;-66
2024/02/27 02:37:39;;;;;;;0.90;0.70;;;;;;;4.32;100.00;100682.66;6096827;23;20174;-67
2024/02/27 02:40:26;;;;;;;0.90;0.73;;;;;;;4.34;100.00;100683.34;6096544;23;20189;-67
2024/02/27 02:43:04;;;;;;;1.23;1.13;;;;;;;4.35;100.00;100690.38;6095197;23;20184;-68
2024/02/27 02:45:43;;;;;;;1.20;1.05;;;;;;;4.29;100.00;100691.03;6072240;23;20205;-68
2024/02/27 02:48:24;;;;;;;2.75;2.55;;;;;;;4.24;100.00;100686.19;6095336;23;20194;-65
2024/02/27 02:51:13;;;;;;;1.90;1.27;;;;;;;4.22;100.00;100687.34;6071354;23;20584;-66
2024/02/27 02:53:56;;;;;;;3.25;1.60;;;;;;;4.25;100.00;100687.03;6071149;23;20180;-66
2024/02/27 02:56:37;;;;;;;1.60;1.25;;;;;;;4.28;100.00;100692.88;6095712;23;20244;-66
2024/02/27 02:59:16;;;;;;;4.03;2.55;;;;;;;4.21;100.00;100691.06;6096802;23;20240;-66
2024/02/27 03:01:57;;;;;;;1.33;1.05;;;;;;;4.22;100.00;100682.81;6096786;23;20225;-68
2024/02/27 03:07:28;;;;;;;3.35;2.63;;;;;;;4.18;100.00;100692.19;6070619;23;20202;-68
2024/02/27 03:10:14;;;;;;;1.17;1.08;;;;;;;4.18;100.00;100688.69;6096531;23;20209;-68
2024/02/27 03:12:56;;;;;;;2.15;1.65;;;;;;;4.24;100.00;100691.53;6070575;23;20588;-67
2024/02/27 03:15:35;;;;;;;1.20;1.08;;;;;;;4.28;100.00;100702.75;6071152;23;20248;-67
2024/02/27 03:18:19;;;;;;;4.57;1.98;;;;;;;4.21;100.00;100717.84;6096781;23;20195;-66
2024/02/27 03:21:01;;;;;;;1.40;0.88;;;;;;;4.19;100.00;100715.31;6072018;23;20526;-65
2024/02/27 03:23:39;;;;;;;3.47;1.27;;;;;;;4.22;100.00;100712.28;6072302;23;20549;-68
2024/02/27 03:26:21;;;;;;;1.50;1.30;;;;;;;4.20;100.00;100702.75;6072733;23;20199;-67
2024/02/27 03:28:58;;;;;;;1.48;1.10;;;;;;;4.20;100.00;100705.44;6071331;23;20195;-67
2024/02/27 03:31:38;;;;;;;0.93;0.82;;;;;;;4.23;100.00;100703.25;6070911;23;20217;-67
2024/02/27 03:34:18;;;;;;;1.05;0.95;;;;;;;4.19;100.00;100706.44;6096228;23;20169;-67
2024/02/27 03:37:04;;;;;;;1.50;1.33;;;;;;;4.22;100.00;100708.78;6096269;23;20157;-67
2024/02/27 03:39:42;;;;;;;3.88;1.30;;;;;;;4.22;100.00;100719.47;6070687;23;20197;-67
2024/02/27 03:42:24;;;;;;;1.08;0.90;;;;;;;4.15;100.00;100718.47;6096240;23;20180;-66
2024/02/27 03:45:01;;;;;;;1.42;1.00;;;;;;;4.17;100.00;100719.13;6069991;23;20226;-67
2024/02/27 03:47:40;;;;;;;1.88;1.77;;;;;;;4.10;100.00;100728.84;6096044;23;20250;-67
2024/02/27 03:50:20;;;;;;;1.95;1.40;;;;;;;4.05;100.00;100729.34;6070487;23;20244;-66
2024/02/27 03:53:04;;;;;;;3.53;1.95;;;;;;;3.97;100.00;100734.66;6069795;23;20189;-63
2024/02/27 03:55:43;;;;;;;1.80;0.90;;;;;;;4.00;100.00;100725.47;6067298;23;20199;-67
2024/02/27 03:58:38;;;;;;;1.50;0.98;;;;;;;3.97;100.00;100731.97;6070050;23;20252;-67
2024/02/27 04:01:21;;;;;;;3.17;2.88;;;;;;;3.90;100.00;100728.28;6070988;23;20171;-67
2024/02/27 04:04:10;;;;;;;1.00;0.70;;;;;;;3.85;100.00;100719.91;6096888;23;20241;-66
2024/02/27 04:06:50;;;;;;;3.25;2.35;;;;;;;3.75;100.00;100721.88;6072462;23;20635;-66
2024/02/27 04:09:33;;;;;;;1.10;0.70;;;;;;;3.69;100.00;100720.69;6070606;23;20201;-67
2024/02/27 04:12:08;;;;;;;1.55;0.95;;;;;;;3.72;100.00;100727.56;6067900;23;20192;-67
2024/02/27 04:14:52;;;;;;;1.05;0.68;;;;;;;3.75;100.00;100730.75;6070380;23;20170;-67
2024/02/27 04:17:28;;;;;;;1.63;1.15;;;;;;;3.76;100.00;100745.81;6095620;23;20172;-68
2024/02/27 04:20:07;;;;;;;2.75;2.08;;;;;;;3.72;100.00;100739.13;6095458;23;20223;-67
2024/02/27 04:22:47;;;;;;;0.90;0.73;;;;;;;3.74;100.00;100742.47;6095650;23;20611;-68
2024/02/27 04:25:28;;;;;;;1.00;0.80;;;;;;;3.65;100.00;100743.44;6047563;23;20187;-67
2024/02/27 04:28:05;;;;;;;6.93;1.80;;;;;;;3.76;100.00;100742.31;6070790;23;20257;-68
2024/02/27 04:30:46;;;;;;;0.90;0.70;;;;;;;3.68;100.00;100748.44;6070755;23;20192;-68
2024/02/27 04:33:31;;;;;;;5.40;3.40;;;;;;;3.59;100.00;100746.75;6096068;23;20197;-66
2024/02/27 04:36:13;;;;;;;7.70;1.33;;;;;;;3.66;100.00;100766.53;6071117;23;20177;-66
2024/02/27 04:38:57;;;;;;;2.60;1.90;;;;;;;3.68;100.00;100767.19;6070331;23;20224;-67
2024/02/27 04:41:40;;;;;;;2.33;1.40;;;;;;;3.65;100.00;100769.34;6070453;23;20655;-66
2024/02/27 04:44:24;;;;;;;1.52;1.27;;;;;;;3.77;100.00;100763.56;6071742;23;20180;-66
2024/02/27 04:47:04;;;;;;;1.08;0.95;;;;;;;3.73;100.00;100756.84;6074692;23;20184;-67
2024/02/27 04:49:43;;;;;;;2.95;2.60;;;;;;;3.72;100.00;100749.84;6074772;23;20202;-68
2024/02/27 04:52:21;;;;;;;4.13;1.67;;;;;;;3.81;100.00;100754.22;6071647;23;20198;-66
2024/02/27 04:54:57;;;;;;;3.70;3.03;;;;;;;3.72;100.00;100743.63;6095830;23;20156;-67
2024/02/27 04:57:39;;;;;;;2.47;1.85;;;;;;;3.73;100.00;100735.44;6095891;23;20181;-66
2024/02/27 05:00:18;;;;;;;2.03;1.20;;;;;;;3.76;100.00;100735.13;6070323;23;20587;-65
2024/02/27 05:03:03;;;;;;;1.08;0.98;;;;;;;3.70;100.00;100719.69;6070475;23;20173;-67
2024/02/27 05:05:45;;;;;;;1.02;0.93;;;;;;;3.75;100.00;100732.59;6070325;23;20172;-67
2024/02/27 05:08:30;;;;;;;2.50;1.52;;;;;;;3.70;100.00;100734.91;6048274;23;20191;-64
2024/02/27 05:11:07;;;;;;;2.88;1.85;;;;;;;3.66;100.00;100734.41;6070329;23;20172;-66
2024/02/27 05:13:47;;;;;;;2.55;1.92;;;;;;;3.63;100.00;100732.03;6069849;23;20584;-65
2024/02/27 05:16:30;;;;;;;5.53;1.95;;;;;;;3.60;100.00;100729.69;6095247;23;20169;-66
2024/02/27 05:19:16;;;;;;;4.38;2.22;;;;;;;3.58;100.00;100731.72;6095983;23;20270;-66
2024/02/27 05:21:55;;;;;;;4.00;3.10;;;;;;;3.52;100.00;100735.03;6070009;23;20588;-67
2024/02/27 05:24:33;;;;;;;4.95;2.58;;;;;;;3.46;100.00;100732.97;6070295;23;20172;-66
2024/02/27 05:27:13;;;;;;;2.83;2.20;;;;;;;3.39;100.00;100737.28;6070325;23;20687;-66
2024/02/27 05:29:48;;;;;;;2.70;2.45;;;;;;;3.30;100.00;100722.19;6070707;23;20198;-67
2024/02/27 05:32:30;;;;;;;5.07;2.35;;;;;;;3.31;100.00;100726.56;6069705;23;20191;-67
2024/02/27 05:35:11;;;;;;;2.38;2.17;;;;;;;3.31;100.00;100745.28;6048414;23;20171;-65
2024/02/27 05:37:48;;;;;;;3.65;2.88;;;;;;;3.36;100.00;100748.31;6071618;23;20176;-66
2024/02/27 05:40:26;;;;;;;5.25;3.30;;;;;;;3.17;100.00;100754.72;6071876;23;20175;-67
2024/02/27 05:43:10;;;;;;;4.80;3.17;;;;;;;3.09;100.00;100760.03;6072002;23;20616;-67
2024/02/27 05:45:47;;;;;;;2.08;1.98;;;;;;;3.30;100.00;100775.69;6072006;23;20259;-67
2024/02/27 05:48:29;;;;;;;4.35;3.20;;;;;;;3.21;100.00;100792.69;6071688;23;20747;-68
2024/02/27 05:51:11;;;;;;;3.55;2.38;;;;;;;3.34;100.00;100795.78;6050677;23;20173;-67
2024/02/27 05:53:52;;;;;;;5.85;2.85;;;;;;;3.23;100.00;100799.56;6071976;23;20710;-67
2024/02/27 05:56:29;;;;;;;2.35;1.88;;;;;;;3.24;100.00;100803.09;6071518;23;20179;-66
2024/02/27 05:59:11;;;;;;;4.35;2.05;;;;;;;3.21;100.00;100798.03;6071766;23;20655;-66
2024/02/27 06:01:49;;;;;;;2.33;2.05;;;;;;;3.27;100.00;100813.44;6072684;23;20663;-65
2024/02/27 06:04:29;;;;;;;3.15;2.92;;;;;;;3.12;100.00;100812.34;6071888;23;20194;-66
2024/02/27 06:07:17;;;;;;;3.20;1.95;;;;;;;3.14;100.00;100816.56;6072259;23;20274;-66
2024/02/27 06:09:55;;;;;;;4.07;3.20;;;;;;;3.06;100.00;100825.34;6069825;23;20541;-67
2024/02/27 06:12:33;;;;;;;4.10;3.85;;;;;;;3.17;100.00;100829.59;6072180;23;20191;-67
2024/02/27 06:15:11;;;;;;;5.57;3.85;;;;;;;3.13;100.00;100833.59;6072431;23;20206;-65
2024/02/27 06:17:56;;;;;;;3.25;2.25;;;;;;;3.12;100.00;100836.41;6072511;23;20580;-67
2024/02/27 06:23:31;;;;;;;2.60;2.38;;;;;;;3.17;100.00;100844.78;6097878;23;20176;-67
2024/02/27 06:26:09;;;;;;;3.10;2.85;;;;;;;3.32;100.00;100856.63;6072217;23;20692;-67
2024/02/27 06:28:52;;;;;;;4.78;3.33;;;;;;;3.47;100.00;100863.06;6071287;23;20196;-67
2024/02/27 06:31:30;;;;;;;3.78;3.47;;;;;;;3.47;100.00;100866.59;6071670;23;20177;-67
2024/02/27 06:34:15;;;;;;;10.52;4.57;;;;;;;3.50;100.00;100865.44;6095478;23;20213;-65
2024/02/27 06:36:53;;;;;;;4.18;2.22;;;;;;;3.48;100.00;100864.75;6096696;23;20165;-66
2024/02/27 06:39:42;;;;;;;1.02;0.93;;;;;;;3.48;100.00;100864.75;6048150;23;20191;-67
2024/02/27 06:42:35;;;;;;;1.48;1.38;;;;;;;3.53;100.00;100873.16;6097235;23;20184;-66
2024/02/27 06:45:19;;;;;;;4.40;2.97;;;;;;;3.59;100.00;100877.84;6072065;23;20493;-66
2024/02/27 06:47:59;;;;;;;9.15;6.20;;;;;;;3.64;100.00;100878.22;6048473;23;20258;-66
2024/02/27 06:50:40;;;;;;;2.80;2.55;;;;;;;3.66;100.00;100857.50;6094771;23;20779;-67
2024/02/27 06:53:30;;;;;;;1.30;1.05;;;;;;;3.67;100.00;100853.84;6097755;23;20182;-67
2024/02/27 06:56:17;;;;;;;10.48;4.95;;;;;;;3.56;100.00;100856.78;6097544;23;20211;-67
2024/02/27 06:58:59;;;;;;;7.68;2.58;;;;;;;3.59;100.00;100860.97;6095566;23;20397;-67
2024/02/27 07:01:41;;;;;;;2.40;2.15;;;;;;;3.67;100.00;100864.56;6095730;23;20234;-68
2024/02/27 07:04:20;;;;;;;1.75;1.65;;;;;;;3.75;100.00;100861.91;6095957;23;20168;-66
2024/02/27 07:07:03;;;;;;;12.55;6.90;;;;;;;3.71;100.00;100855.19;6096034;23;20188;-66
2024/02/27 07:10:03;;;;;;;5.57;4.38;;;;;;;3.75;100.00;100863.75;6097354;23;20200;-66
2024/02/27 07:12:49;;;;;;;7.57;6.40;;;;;;;3.90;100.00;100865.69;6097011;23;20159;-68
2024/02/27 07:15:35;;;;;;;10.73;6.75;;;;;;;4.07;100.00;100863.91;6097274;23;20485;-67
2024/02/27 07:18:19;;;;;;;2.92;2.63;;;;;;;3.98;100.00;100877.41;6095346;23;20196;-67
2024/02/27 07:21:12;;;;;;;11.55;9.45;;;;;;;4.08;100.00;100880.81;6095062;23;20171;-65
2024/02/27 07:23:56;;;;;;;8.88;7.97;;;;;;;4.23;100.00;100876.53;6095301;23;20267;-68
2024/02/27 07:26:36;;;;;;;12.88;6.05;;;;;;;4.33;100.00;100877.22;6092384;23;20709;-68
2024/02/27 07:29:26;;;;;;;3.85;3.38;;;;;;;4.60;100.00;100882.31;6097658;23;20197;-66
2024/02/27 07:32:16;;;;;;;6.28;5.55;;;;;;;4.54;100.00;100874.97;6095730;23;20203;-67
2024/02/27 07:34:59;;;;;;;4.53;2.67;;;;;;;4.50;100.00;100878.13;6095558;23;20654;-68
2024/02/27 07:37:42;;;;;;;4.22;3.83;;;;;;;4.62;100.00;100884.84;6072565;23;20185;-66
2024/02/27 07:40:41;;;;;;;5.75;4.13;;;;;;;4.77;100.00;100885.91;6095519;23;20182;-66
2024/02/27 07:43:27;;;;;;;4.97;4.55;;;;;;;4.77;100.00;100908.19;6094634;23;20170;-66
2024/02/27 07:46:16;;;;;;;6.25;5.03;;;;;;;4.92;100.00;100902.16;6096683;23;20159;-68
2024/02/27 07:49:01;;;;;;;5.88;5.28;;;;;;;4.87;100.00;100907.19;6094791;23;20206;-69
2024/02/27 07:51:42;;;;;;;10.68;9.68;;;;;;;4.82;100.00;100908.53;6070718;23;20252;-68
2024/02/27 07:54:19;;;;;;;8.38;4.10;;;;;;;4.97;100.00;100910.56;6070571;23;20659;-66
2024/02/27 07:57:03;;;;;;;10.93;6.80;;;;;;;4.90;100.00;100915.72;6070417;23;20695;-67
2024/02/27 07:59:47;;;;;;;5.47;3.25;;;;;;;4.89;100.00;100921.28;6070736;23;20198;-67
2024/02/27 08:02:37;;;;;;;4.25;3.85;;;;;;;4.75;100.00;100912.84;6070677;23;20177;-67
2024/02/27 08:05:21;;;;;;;5.75;5.20;;;;;;;4.71;100.00;100919.56;6070485;23;20615;-67
2024/02/27 08:08:05;;;;;;;5.32;2.55;;;;;;;4.80;100.00;100920.41;6070632;23;20172;-66
2024/02/27 08:10:50;;;;;;;5.47;2.83;;;;;;;4.94;100.00;100914.41;6070448;23;20188;-66
2024/02/27 08:13:27;;;;;;;4.03;2.45;;;;;;;4.92;100.00;100920.94;6069621;23;20627;-66
2024/02/27 08:16:08;;;;;;;5.53;3.08;;;;;;;4.90;100.00;100928.31;6048486;23;20173;-67
2024/02/27 08:18:55;;;;;;;7.90;4.43;;;;;;;5.07;100.00;100935.38;6070485;23;20535;-67
2024/02/27 08:21:33;;;;;;;3.40;3.10;;;;;;;5.05;100.00;100942.75;6070347;23;20519;-66
2024/02/27 08:24:19;;;;;;;9.20;6.18;;;;;;;5.14;100.00;100937.22;6071362;23;20178;-67
2024/02/27 08:27:05;;;;;;;6.75;4.10;;;;;;;5.00;100.00;100939.72;6070827;23;20572;-66
2024/02/27 08:29:47;;;;;;;7.30;4.63;;;;;;;4.95;100.00;100940.22;6070756;23;20198;-64
2024/02/27 08:32:24;;;;;;;6.43;3.70;;;;;;;4.91;100.00;100940.72;6071132;23;20181;-66
2024/02/27 08:35:13;;;;;;;7.40;3.97;;;;;;;5.04;100.00;100935.69;6070797;23;20598;-66
2024/02/27 08:37:54;;;;;;;3.85;2.35;;;;;;;5.05;100.00;100942.75;6070354;23;20261;-68
2024/02/27 08:40:36;;;;;;;5.00;3.80;;;;;;;4.99;100.00;100938.03;6070460;23;20178;-66
2024/02/27 08:43:16;;;;;;;7.28;5.28;;;;;;;5.20;100.00;100946.47;6070348;23;20173;-68
2024/02/27 08:46:10;;;;;;;5.50;4.55;;;;;;;5.10;100.00;100949.31;6069990;23;20260;-66
2024/02/27 08:48:49;;;;;;;5.28;3.80;;;;;;;5.09;100.00;100965.56;6071287;23;20205;-67
2024/02/27 08:51:36;;;;;;;4.82;2.72;;;;;;;5.09;100.00;100950.28;6094318;23;20200;-67
2024/02/27 08:54:22;;;;;;;5.00;3.40;;;;;;;5.16;100.00;100955.84;6094613;23;20249;-65
2024/02/27 08:57:06;;;;;;;6.80;3.40;;;;;;;5.34;100.00;100955.69;6094173;23;20233;-65
2024/02/27 08:59:52;;;;;;;6.25;3.53;;;;;;;5.40;100.00;100963.94;6094356;23;20204;-66
2024/02/27 09:02:30;;;;;;;11.35;4.80;;;;;;;5.44;100.00;100954.53;6077655;23;20178;-66
2024/02/27 09:05:10;;;;;;;12.73;6.63;;;;;;;5.33;100.00;100952.16;6100255;23;20177;-65
2024/02/27 09:07:55;;;;;;;8.10;4.63;;;;;;;5.48;100.00;100961.22;6076589;23;20171;-66
2024/02/27 09:10:31;;;;;;;6.45;3.83;;;;;;;5.53;100.00;100964.25;6095692;23;20634;-66
2024/02/27 09:13:11;;;;;;;8.35;3.15;;;;;;;5.49;100.00;100968.28;6097740;23;20174;-67
2024/02/27 09:15:49;;;;;;;7.97;3.17;;;;;;;5.43;100.00;100979.69;6097422;23;20191;-66
2024/02/27 09:18:30;;;;;;;5.70;5.18;;;;;;;5.39;100.00;100972.13;6097557;23;20194;-67
2024/02/27 09:21:05;;;;;;;5.07;4.47;;;;;;;5.56;100.00;100974.69;6097213;23;20520;-67
2024/02/27 09:23:51;;;;;;;9.30;5.97;;;;;;;5.46;100.00;100979.38;6097406;23;20170;-66
2024/02/27 09:26:32;;;;;;;10.73;4.78;;;;;;;5.63;100.00;100981.03;6099075;23;20218;-66
2024/02/27 09:29:12;;;;;;;6.05;3.55;;;;;;;5.71;100.00;100987.44;6096705;23;20218;-65
2024/02/27 09:31:56;;;;;;;9.65;7.32;;;;;;;5.79;100.00;100979.34;6096424;23;20174;-65
2024/02/27 09:34:34;;;;;;;4.95;3.63;;;;;;;5.82;100.00;100979.00;6096231;23;20242;-64
2024/02/27 09:37:14;;;;;;;9.57;6.20;;;;;;;5.63;100.00;100986.41;6094913;23;20540;-67
2024/02/27 09:39:53;;;;;;;6.47;3.03;;;;;;;5.69;100.00;100985.75;6093529;23;20194;-65
2024/02/27 09:42:37;;;;;;;7.15;3.47;;;;;;;5.62;100.00;100990.09;6096209;23;20185;-66
2024/02/27 09:45:22;;;;;;;4.75;4.32;;;;;;;5.61;100.00;100988.44;6098561;23;20455;-66
2024/02/27 09:48:01;;;;;;;3.17;2.47;;;;;;;5.67;100.00;100990.44;6096363;23;20623;-67
2024/02/27 09:50:46;;;;;;;9.80;4.05;;;;;;;5.65;100.00;100997.00;6096583;23;20207;-66
2024/02/27 09:53:33;;;;;;;6.97;3.42;;;;;;;5.80;100.00;100991.78;6096443;23;20210;-69
2024/02/27 09:56:16;;;;;;;5.85;2.42;;;;;;;5.73;100.00;100994.28;6097907;23;20187;-67
2024/02/27 09:59:02;;;;;;;8.40;5.63;;;;;;;5.73;100.00;100991.59;6096152;23;20242;-65
2024/02/27 10:01:42;;;;;;;6.30;3.53;;;;;;;5.68;100.00;101000.16;6096228;23;20225;-65
2024/02/27 10:04:26;;;;;;;4.40;3.72;;;;;;;5.84;100.00;100998.50;6097510;23;20194;-65
2024/02/27 10:07:14;;;;;;;6.47;4.30;;;;;;;6.02;100.00;100996.47;6096081;23;20683;-67
2024/02/27 10:09:54;;;;;;;5.55;2.97;;;;;;;6.14;100.00;101005.03;6096078;23;20205;-69
2024/02/27 10:12:33;;;;;;;7.53;5.80;;;;;;;6.20;100.00;100999.78;6096054;23;20524;-69
2024/02/27 10:15:10;;;;;;;5.78;3.75;;;;;;;6.24;100.00;101003.84;6096470;23;20358;-66
2024/02/27 10:17:53;;;;;;;8.65;7.22;;;;;;;6.07;100.00;100994.97;6098055;23;20487;-66
2024/02/27 10:20:34;;;;;;;9.25;3.67;;;;;;;6.03;100.00;100998.16;6095898;23;20650;-68
2024/02/27 10:23:11;;;;;;;8.80;2.50;;;;;;;5.95;100.00;100996.34;6095827;23;20514;-67
2024/02/27 10:25:52;;;;;;;7.82;4.55;;;;;;;6.07;100.00;100999.50;6096002;23;20564;-66
2024/02/27 10:28:29;;;;;;;4.97;3.20;;;;;;;6.25;100.00;100993.91;6095357;23;20671;-67
2024/02/27 10:35:22;;;;;;;9.02;3.85;;;;;;;6.24;100.00;100998.47;6097189;23;20532;-67
2024/02/27 10:38:07;;;;;;;11.48;3.15;;;;;;;6.28;100.00;101002.47;6095249;23;20183;-67
2024/02/27 10:40:50;;;;;;;5.30;3.53;;;;;;;6.25;100.00;100999.28;6097289;23;20316;-67
2024/02/27 10:43:46;;;;;;;9.07;6.85;;;;;;;6.30;100.00;100999.59;6097310;23;20179;-67
2024/02/27 10:46:24;;;;;;;9.82;6.85;;;;;;;6.45;100.00;100998.72;6095514;23;20177;-68
2024/02/27 10:49:02;;;;;;;3.97;2.63;;;;;;;6.67;100.00;100999.00;6094883;23;20212;-66
2024/02/27 10:51:40;;;;;;;4.35;3.13;;;;;;;6.57;100.00;101003.75;6095103;23;20182;-68
2024/02/27 10:54:20;;;;;;;18.38;12.52;;;;;;;6.53;100.00;101006.75;6095553;23;20245;-66
2024/02/27 10:57:00;;;;;;;8.60;4.45;;;;;;;6.44;100.00;101007.78;6095538;23;20229;-67
2024/02/27 10:59:45;;;;;;;5.85;2.83;;;;;;;6.61;100.00;100997.00;6097115;23;20643;-68
2024/02/27 11:02:26;;;;;;;2.15;1.48;;;;;;;6.64;100.00;100997.47;6095771;23;20183;-64
2024/02/27 11:05:11;;;;;;;4.72;2.40;;;;;;;6.90;100.00;101002.59;6097575;23;20504;-67
2024/02/27 11:07:49;;;;;;;5.93;2.92;;;;;;;6.65;100.00;100999.16;6095654;23;20624;-66
2024/02/27 11:10:32;;;;;;;6.30;3.05;;;;;;;6.71;100.00;100997.63;6097970;23;20164;-66
2024/02/27 11:13:19;;;;;;;2.95;1.90;;;;;;;6.89;100.00;100993.66;6095426;23;20182;-67
2024/02/27 11:16:05;;;;;;;3.67;3.35;;;;;;;7.05;99.82;101000.00;6094618;23;20191;-66
2024/02/27 11:18:49;;;;;;;10.77;3.75;;;;;;;7.09;99.95;101001.31;6095015;23;20251;-66
2024/02/27 11:21:26;;;;;;;4.85;3.40;;;;;;;7.03;99.23;100997.47;6095100;23;20175;-67
2024/02/27 11:24:05;;;;;;;6.05;4.13;;;;;;;7.06;99.03;100999.81;6095350;23;20179;-67
2024/02/27 11:26:45;;;;;;;7.28;3.90;;;;;;;7.23;99.15;100989.78;6095357;23;20203;-66
2024/02/27 11:29:27;;;;;;;3.28;2.92;;;;;;;7.11;97.91;100993.91;6072963;23;20536;-68
2024/02/27 11:32:07;;;;;;;3.25;3.00;;;;;;;7.26;97.51;100994.81;6095296;23;20166;-67
2024/02/27 11:34:49;;;;;;;13.75;3.88;;;;;;;7.44;96.64;100998.06;6094952;23;20183;-66
2024/02/27 11:37:30;;;;;;;3.88;2.78;;;;;;;7.28;96.59;100999.00;6094967;23;20605;-66
2024/02/27 11:40:12;;;;;;;5.80;3.53;;;;;;;7.12;97.12;100985.63;6095070;23;20199;-67
2024/02/27 11:42:52;;;;;;;9.23;5.20;;;;;;;7.08;97.39;100997.78;6095654;23;20181;-65
2024/02/27 11:45:34;;;;;;;4.68;3.20;;;;;;;7.24;97.08;101003.06;6095176;23;20692;-66
2024/02/27 11:48:15;;;;;;;6.50;4.05;;;;;;;7.02;97.35;101009.22;6094963;23;20561;-68
2024/02/27 11:50:54;;;;;;;5.22;2.83;;;;;;;7.00;98.36;101011.28;6094783;23;20254;-66
2024/02/27 11:53:40;;;;;;;4.32;3.75;;;;;;;7.02;97.39;101006.53;6094705;23;20175;-67
2024/02/27 11:56:18;;;;;;;10.68;6.68;;;;;;;7.14;97.52;101004.31;6096148;23;20179;-67
2024/02/27 11:59:01;;;;;;;2.83;2.10;;;;;;;7.08;97.31;101005.84;6073034;23;20226;-66
2024/02/27 12:01:43;;;;;;;3.38;2.67;;;;;;;7.33;96.17;101009.22;6097639;23;20175;-65
2024/02/27 12:04:26;;;;;;;2.90;2.08;;;;;;;7.60;94.65;101014.06;6099203;23;20179;-67
2024/02/27 12:07:09;;;;;;;1.95;1.73;;;;;;;7.76;93.56;101010.44;6095690;23;20263;-67
2024/02/27 12:10:38;;;;;;;3.65;2.92;;;;;;;7.59;93.53;101008.88;6097278;23;20182;-67
2024/02/27 12:13:16;;;;;;;3.58;2.35;;;;;;;7.27;95.31;101000.00;6095086;23;20229;-67
2024/02/27 12:16:01;;;;;;;3.63;2.35;;;;;;;7.39;94.92;100998.59;6094910;23;20187;-67
2024/02/27 12:23:14;;;;;;;3.25;2.92;;;;;;;7.43;95.99;100999.91;6096288;23;20240;-67
2024/02/27 12:25:58;;;;;;;6.63;2.42;;;;;;;7.34;94.43;101011.75;6094822;23;20167;-67
2024/02/27 12:28:36;;;;;;;2.78;2.22;;;;;;;7.28;95.22;101011.63;6094683;23;20217;-67
2024/02/27 12:31:13;;;;;;;2.83;1.95;;;;;;;7.38;95.36;101013.06;6094754;23;20182;-66
2024/02/27 12:33:49;;;;;;;3.45;3.15;;;;;;;7.40;94.89;101016.44;6095075;23;20179;-66
2024/02/27 12:36:30;;;;;;;5.32;2.25;;;;;;;7.27;95.41;101012.63;6094903;23;20274;-66
2024/02/27 12:39:13;;;;;;;4.35;3.95;;;;;;;7.24;95.28;101010.31;6094999;23;20521;-67
2024/02/27 12:41:55;;;;;;;4.70;3.00;;;;;;;7.23;94.95;101014.00;6094887;23;20238;-65
2024/02/27 12:44:39;;;;;;;5.40;2.72;;;;;;;7.32;94.81;101019.16;6094555;23;20179;-67
2024/02/27 12:47:22;;;;;;;5.68;2.17;;;;;;;7.26;94.82;101014.47;6097127;23;20221;-68
2024/02/27 12:50:00;;;;;;;3.72;2.85;;;;;;;7.35;94.62;101013.44;6096846;23;20210;-67
2024/02/27 12:52:40;;;;;;;5.18;3.15;;;;;;;7.16;95.29;101016.59;6097344;23;20170;-66